Time;durP1;ratioP1;P1;durP2;ratioP2;P2;SDS_P1;SDS_P2;PMS_P1;PMS_P2;Temp;Humidity;BMP_temperature;BMP_pressure;BME280_temperature;BME280_humidity;BME280_pressure;Samples;Min_cycle;Max_cycle;Signal;HPM_P1;HPM_P2
2022/05/26 00:00:26;;;;;;;4.18;2.92;;;;;;;12.04;88.28;100933.59;5080239;28;20024;-84
2022/05/26 00:02:51;;;;;;;4.38;3.10;;;;;;;12.05;89.67;100930.94;5080308;28;20027;-84
2022/05/26 00:05:17;;;;;;;4.00;3.42;;;;;;;12.04;89.78;100925.75;5080075;28;20028;-84
2022/05/26 00:07:42;;;;;;;5.03;3.67;;;;;;;12.05;89.63;100930.09;5079558;28;20102;-84
2022/05/26 00:10:08;;;;;;;3.95;3.38;;;;;;;12.05;88.54;100936.19;5079586;28;20020;-84
2022/05/26 00:12:33;;;;;;;3.67;3.38;;;;;;;12.05;88.47;100930.09;5096128;28;20484;-85
2022/05/26 00:14:58;;;;;;;4.97;3.88;;;;;;;12.07;87.95;100944.91;5096031;28;20028;-84
2022/05/26 00:17:24;;;;;;;4.03;3.83;;;;;;;12.09;89.25;100926.53;5079940;28;20129;-84
2022/05/26 00:19:49;;;;;;;4.32;4.03;;;;;;;12.09;89.87;100927.41;5096134;28;20103;-85
2022/05/26 00:22:15;;;;;;;6.10;3.63;;;;;;;12.08;88.29;100935.28;5079063;28;20393;-84
2022/05/26 00:24:41;;;;;;;4.05;3.78;;;;;;;12.09;88.44;100922.19;5113107;28;20055;-85
2022/05/26 00:27:10;;;;;;;4.45;4.05;;;;;;;12.11;87.52;100925.63;5078459;28;20481;-85
2022/05/26 00:29:35;;;;;;;4.55;4.30;;;;;;;12.14;88.13;100919.47;5078910;28;20016;-85
2022/05/26 00:32:01;;;;;;;4.72;4.30;;;;;;;12.18;86.56;100927.22;5079048;28;20028;-85
2022/05/26 00:34:26;;;;;;;4.18;3.83;;;;;;;12.18;86.94;100926.38;5079000;28;20115;-84
2022/05/26 00:36:52;;;;;;;4.82;4.50;;;;;;;12.20;85.91;100923.72;5096471;28;20030;-84
2022/05/26 00:39:19;;;;;;;5.15;4.68;;;;;;;12.18;87.09;100936.84;5096472;28;20027;-84
2022/05/26 00:41:53;;;;;;;4.78;4.38;;;;;;;12.21;86.61;100934.16;5079672;28;20031;-83
2022/05/26 00:44:19;;;;;;;5.45;4.85;;;;;;;12.19;87.68;100930.72;5097030;28;20019;-83
2022/05/26 00:47:02;;;;;;;6.55;4.63;;;;;;;12.23;86.52;100932.38;5079621;28;20072;-84
2022/05/26 00:49:36;;;;;;;5.97;5.00;;;;;;;12.25;85.85;100934.97;5079541;28;20477;-84
2022/05/26 00:52:03;;;;;;;5.82;5.28;;;;;;;12.25;86.03;100933.19;5096577;28;20027;-84
2022/05/26 00:54:28;;;;;;;6.00;5.60;;;;;;;12.24;86.02;100928.84;5079278;28;20019;-84
2022/05/26 00:56:59;;;;;;;6.90;6.40;;;;;;;12.24;86.93;100936.72;5079262;28;20031;-84
2022/05/26 00:59:38;;;;;;;6.45;6.05;;;;;;;12.26;85.14;100932.31;5095987;28;20031;-84
2022/05/26 01:02:04;;;;;;;5.45;5.05;;;;;;;12.30;85.97;100938.38;5096127;28;20023;-84
2022/05/26 01:04:36;;;;;;;6.85;6.20;;;;;;;12.26;86.44;100940.19;5079134;28;20543;-84
2022/05/26 01:07:23;;;;;;;6.78;6.00;;;;;;;12.24;87.39;100936.72;5095994;28;20476;-85
2022/05/26 01:09:49;;;;;;;7.78;7.00;;;;;;;12.31;86.61;100933.09;5095491;28;20020;-84
2022/05/26 01:12:14;;;;;;;7.22;6.63;;;;;;;12.29;87.03;100932.25;5079053;28;20027;-84
2022/05/26 01:15:03;;;;;;;7.07;6.50;;;;;;;12.31;86.36;100927.88;5078957;28;20028;-84
2022/05/26 01:17:36;;;;;;;7.00;6.70;;;;;;;12.35;86.08;100933.88;5079022;28;20244;-85
2022/05/26 01:20:35;;;;;;;7.90;7.28;;;;;;;12.30;87.10;100926.13;5112364;28;20440;-85
2022/05/26 01:23:13;;;;;;;7.93;7.32;;;;;;;12.32;86.84;100934.84;5112513;28;20030;-84
2022/05/26 01:26:09;;;;;;;9.13;8.43;;;;;;;12.31;86.19;100946.19;5113463;28;20042;-84
2022/05/26 01:28:56;;;;;;;8.88;8.02;;;;;;;12.34;86.78;100948.75;5113675;28;20026;-84
2022/05/26 01:31:57;;;;;;;8.70;8.20;;;;;;;12.36;86.75;100940.00;5112244;28;20027;-84
2022/05/26 01:34:55;;;;;;;9.65;8.32;;;;;;;12.34;86.30;100937.41;5095494;28;20066;-84
2022/05/26 01:37:51;;;;;;;9.30;8.50;;;;;;;12.36;86.95;100934.75;5095143;28;20039;-84
2022/05/26 01:40:20;;;;;;;9.10;8.52;;;;;;;12.36;86.68;100934.75;5094792;28;20028;-84
2022/05/26 01:42:56;;;;;;;9.00;8.30;;;;;;;12.42;86.28;100942.47;5097298;28;20030;-84
2022/05/26 01:45:47;;;;;;;9.40;8.70;;;;;;;12.43;86.64;100936.34;5130919;22;20391;-85
2022/05/26 01:48:36;;;;;;;9.70;8.80;;;;;;;12.39;87.17;100930.31;5118339;27;20494;-86
2022/05/26 01:51:26;;;;;;;9.82;9.13;;;;;;;12.43;86.36;100925.88;5101769;27;20383;-86
2022/05/26 01:54:10;;;;;;;10.10;8.65;;;;;;;12.39;87.24;100929.47;5118329;27;20110;-85
2022/05/26 01:57:00;;;;;;;9.43;8.45;;;;;;;12.39;86.72;100934.69;5118057;27;20024;-86
2022/05/26 01:59:37;;;;;;;9.70;8.70;;;;;;;12.37;87.56;100939.13;5135100;27;20038;-86
2022/05/26 02:02:06;;;;;;;10.68;8.07;;;;;;;12.38;87.61;100941.69;5101232;27;20023;-86
2022/05/26 02:04:54;;;;;;;11.65;9.10;;;;;;;12.40;86.71;100931.19;5119257;27;20496;-88
2022/05/26 02:07:31;;;;;;;9.80;8.98;;;;;;;12.47;85.74;100935.41;5101080;27;20433;-88
2022/05/26 02:09:58;;;;;;;9.65;8.88;;;;;;;12.48;86.07;100937.13;5136509;27;20047;-88
2022/05/26 02:12:29;;;;;;;9.68;8.82;;;;;;;12.41;86.99;100932.94;5118052;27;20476;-88
2022/05/26 02:15:01;;;;;;;10.10;9.15;;;;;;;12.42;87.66;100926.75;5100991;27;20479;-87
2022/05/26 02:17:30;;;;;;;11.30;8.57;;;;;;;12.42;86.87;100929.38;5101217;27;20026;-88
2022/05/26 02:20:04;;;;;;;11.07;10.10;;;;;;;12.40;87.19;100931.19;5101566;27;20445;-87
2022/05/26 02:22:37;;;;;;;9.60;8.80;;;;;;;12.40;87.99;100939.06;5101098;27;20046;-87
2022/05/26 02:25:07;;;;;;;9.80;8.95;;;;;;;12.41;87.24;100932.94;5100997;27;20023;-88
2022/05/26 02:27:34;;;;;;;9.85;9.00;;;;;;;12.45;87.33;100945.06;5100798;27;20080;-88
2022/05/26 02:30:01;;;;;;;9.95;8.82;;;;;;;12.45;86.30;100939.81;5101014;27;20030;-87
2022/05/26 02:32:35;;;;;;;9.73;8.77;;;;;;;12.45;86.77;100939.81;5101617;27;20022;-87
2022/05/26 02:35:04;;;;;;;9.50;8.70;;;;;;;12.44;86.86;100933.69;5101556;27;20031;-88
2022/05/26 02:37:30;;;;;;;10.15;9.02;;;;;;;12.42;86.83;100932.88;5101274;27;20075;-88
2022/05/26 02:39:56;;;;;;;10.65;8.77;;;;;;;12.44;86.86;100938.94;5100882;27;20019;-88
2022/05/26 02:42:22;;;;;;;12.27;8.95;;;;;;;12.46;87.06;100915.34;5118059;27;20026;-88
2022/05/26 02:44:48;;;;;;;9.45;8.55;;;;;;;12.43;86.94;100925.88;5100654;27;20026;-88
2022/05/26 02:47:48;;;;;;;9.35;8.48;;;;;;;12.43;86.68;100934.59;5100324;27;20023;-87
2022/05/26 02:50:20;;;;;;;9.57;8.57;;;;;;;12.48;86.36;100945.84;5090090;27;20090;-87
2022/05/26 02:52:52;;;;;;;9.10;8.30;;;;;;;12.44;87.07;100932.84;5117689;27;20385;-88
2022/05/26 02:55:20;;;;;;;10.93;8.98;;;;;;;12.43;87.46;100938.97;5117303;27;20117;-88
2022/05/26 02:58:04;;;;;;;10.45;9.45;;;;;;;12.42;86.77;100940.75;5117158;27;20492;-87
2022/05/26 03:00:37;;;;;;;15.48;10.23;;;;;;;12.44;86.93;100940.72;5117111;27;20118;-88
2022/05/26 03:03:15;;;;;;;9.90;8.90;;;;;;;12.41;87.55;100939.00;5100262;27;20023;-87
2022/05/26 03:06:14;;;;;;;9.82;8.27;;;;;;;12.42;86.96;100948.59;5100324;27;20031;-87
2022/05/26 03:08:41;;;;;;;10.13;8.07;;;;;;;12.43;87.09;100949.47;5100448;27;20030;-87
2022/05/26 03:11:21;;;;;;;9.57;8.80;;;;;;;12.45;87.57;100952.94;5099950;27;20167;-87
2022/05/26 03:13:46;;;;;;;8.93;7.93;;;;;;;12.51;86.38;100947.53;5100253;27;20023;-87
2022/05/26 03:16:12;;;;;;;9.82;8.85;;;;;;;12.50;86.68;100945.81;5099639;27;20494;-87
2022/05/26 03:18:37;;;;;;;9.85;8.95;;;;;;;12.48;86.97;100947.63;5099771;27;20015;-87
2022/05/26 03:21:04;;;;;;;10.15;9.15;;;;;;;12.52;86.24;100954.53;5099599;27;20038;-87
2022/05/26 03:23:30;;;;;;;9.68;8.82;;;;;;;12.51;86.85;100958.88;5099807;27;20027;-86
2022/05/26 03:25:57;;;;;;;11.38;8.90;;;;;;;12.51;86.86;100955.41;5100237;27;20072;-88
2022/05/26 03:28:27;;;;;;;10.55;9.73;;;;;;;12.48;87.08;100958.94;5099501;27;20023;-87
2022/05/26 03:30:53;;;;;;;10.68;9.43;;;;;;;12.55;85.70;100971.94;5116792;27;20076;-87
2022/05/26 03:33:19;;;;;;;11.18;8.57;;;;;;;12.51;85.77;100960.66;5099594;27;20030;-87
2022/05/26 03:41:19;;;;;;;10.32;9.20;;;;;;;12.52;86.18;100965.84;5099118;27;20034;-86
2022/05/26 03:43:47;;;;;;;10.60;9.50;;;;;;;12.51;86.35;100977.22;5099400;27;20030;-87
2022/05/26 03:46:13;;;;;;;9.10;8.18;;;;;;;12.53;86.11;100979.84;5099180;27;20197;-87
2022/05/26 03:48:40;;;;;;;8.88;8.15;;;;;;;12.55;86.25;100970.16;5116289;27;20015;-87
2022/05/26 03:51:06;;;;;;;10.15;9.18;;;;;;;12.56;85.86;100969.28;5116226;27;20049;-89
2022/05/26 03:53:33;;;;;;;11.38;8.68;;;;;;;12.62;85.22;100968.28;5099148;27;20027;-87
2022/05/26 03:56:02;;;;;;;10.77;8.80;;;;;;;12.62;86.16;100971.75;5099132;27;20019;-86
2022/05/26 03:58:27;;;;;;;10.10;9.10;;;;;;;12.62;85.51;100956.03;5116558;27;20015;-86
2022/05/26 04:00:53;;;;;;;9.82;8.13;;;;;;;12.61;85.37;100956.06;5115782;27;20019;-86
2022/05/26 04:03:18;;;;;;;8.98;8.18;;;;;;;12.60;85.29;100972.72;5099002;27;20023;-87
2022/05/26 04:05:44;;;;;;;9.15;8.30;;;;;;;12.59;85.61;100979.69;5115706;27;20027;-88
2022/05/26 04:08:10;;;;;;;8.60;7.78;;;;;;;12.60;85.47;100975.34;5098767;27;20527;-87
2022/05/26 04:10:35;;;;;;;8.68;7.80;;;;;;;12.62;85.58;100994.50;5098888;27;20012;-87
2022/05/26 04:13:01;;;;;;;8.68;7.90;;;;;;;12.63;85.55;100983.97;5099460;27;20114;-88
2022/05/26 04:15:26;;;;;;;8.98;7.45;;;;;;;12.65;84.84;100984.84;5099164;27;20019;-87
2022/05/26 04:17:51;;;;;;;8.88;7.10;;;;;;;12.65;85.33;100984.84;5115590;27;20103;-86
2022/05/26 04:20:20;;;;;;;8.05;7.35;;;;;;;12.64;84.70;100983.09;5098919;27;20027;-86
2022/05/26 04:22:45;;;;;;;7.80;7.13;;;;;;;12.65;85.43;100999.66;5098869;27;20113;-86
2022/05/26 04:25:11;;;;;;;9.65;7.57;;;;;;;12.69;85.33;100996.09;5098746;27;20109;-86
2022/05/26 04:27:36;;;;;;;7.43;6.68;;;;;;;12.68;84.00;100987.38;5098757;27;20029;-86
2022/05/26 04:30:05;;;;;;;7.57;6.72;;;;;;;12.67;84.51;100988.25;5099291;27;20015;-86
2022/05/26 04:32:30;;;;;;;7.55;6.68;;;;;;;12.68;85.46;100984.75;5098989;27;20392;-86
2022/05/26 04:34:56;;;;;;;7.15;6.30;;;;;;;12.70;85.21;101010.09;5116107;27;20015;-86
2022/05/26 04:37:23;;;;;;;7.47;6.80;;;;;;;12.70;84.53;100986.50;5098392;27;20072;-86
2022/05/26 04:39:50;;;;;;;7.47;6.78;;;;;;;12.70;84.92;100986.50;5098393;27;20499;-86
2022/05/26 04:42:16;;;;;;;8.98;6.60;;;;;;;12.75;84.22;100979.38;5098488;27;20019;-86
2022/05/26 04:44:43;;;;;;;6.63;6.03;;;;;;;12.74;85.38;100999.50;5115557;27;20019;-85
2022/05/26 04:47:10;;;;;;;7.43;6.10;;;;;;;12.76;85.28;101002.06;5099012;27;20077;-85
2022/05/26 04:49:37;;;;;;;7.22;6.40;;;;;;;12.78;84.66;101000.31;5098284;28;20042;-86
2022/05/26 04:52:13;;;;;;;10.57;6.28;;;;;;;12.83;84.04;101006.31;5098797;27;20023;-86
2022/05/26 04:54:39;;;;;;;7.10;5.30;;;;;;;12.85;84.22;101002.75;5098391;27;20019;-85
2022/05/26 04:57:05;;;;;;;5.68;5.10;;;;;;;12.84;85.00;101010.66;5098447;28;20087;-86
2022/05/26 04:59:32;;;;;;;7.45;5.65;;;;;;;12.83;84.00;101016.81;5098061;27;20087;-85
2022/05/26 05:01:57;;;;;;;7.97;5.07;;;;;;;12.82;83.40;101025.56;5098800;27;20453;-86
2022/05/26 05:04:24;;;;;;;10.60;5.40;;;;;;;12.78;84.24;101023.91;5114856;28;20046;-85
2022/05/26 05:06:50;;;;;;;8.30;4.88;;;;;;;12.75;84.73;101031.78;5098004;28;20528;-86
2022/05/26 05:09:16;;;;;;;7.97;5.78;;;;;;;12.76;83.43;101030.91;5115449;28;20376;-86
2022/05/26 05:11:41;;;;;;;5.65;5.10;;;;;;;12.72;83.94;101032.75;5098045;28;20030;-86
2022/05/26 05:14:07;;;;;;;5.45;4.55;;;;;;;12.74;83.85;101028.31;5114972;28;20019;-86
2022/05/26 05:16:35;;;;;;;6.80;4.35;;;;;;;12.74;84.98;101030.94;5098210;27;20026;-85
2022/05/26 05:19:01;;;;;;;9.73;5.13;;;;;;;12.76;84.66;101042.28;5102439;27;20034;-86
2022/05/26 05:21:30;;;;;;;9.00;4.60;;;;;;;12.76;83.98;101033.53;5102205;27;20023;-85
2022/05/26 05:23:59;;;;;;;6.72;4.70;;;;;;;12.76;84.19;101042.28;5102091;27;20053;-86
2022/05/26 05:26:25;;;;;;;5.78;4.68;;;;;;;12.82;83.40;101043.91;5101816;27;20023;-86
2022/05/26 05:29:01;;;;;;;8.10;4.40;;;;;;;12.85;83.99;101039.44;5102080;27;20023;-86
2022/05/26 05:31:32;;;;;;;10.50;4.78;;;;;;;12.94;83.26;101048.91;5102058;27;20261;-85
2022/05/26 05:34:03;;;;;;;5.70;4.50;;;;;;;12.92;82.31;101041.97;5102032;27;20027;-85
2022/05/26 05:36:31;;;;;;;6.50;3.90;;;;;;;12.91;81.13;101050.72;5101835;27;20023;-85
2022/05/26 05:38:58;;;;;;;5.88;3.53;;;;;;;12.90;81.12;101041.13;5101798;27;20106;-85
2022/05/26 05:41:24;;;;;;;6.63;3.55;;;;;;;12.91;80.29;101048.97;5101616;27;20106;-85
2022/05/26 05:43:49;;;;;;;9.98;3.90;;;;;;;12.94;81.30;101043.66;5101915;27;20130;-85
2022/05/26 05:46:15;;;;;;;4.10;3.25;;;;;;;12.98;80.22;101049.72;5101698;27;20034;-86
2022/05/26 05:48:43;;;;;;;3.58;2.90;;;;;;;12.95;79.92;101052.38;5102002;27;20019;-86
2022/05/26 05:51:10;;;;;;;6.78;3.40;;;;;;;12.97;80.47;101054.06;5118887;27;20496;-86
2022/05/26 05:53:35;;;;;;;9.18;3.50;;;;;;;12.97;80.96;101047.97;5118599;27;20019;-85
2022/05/26 05:56:00;;;;;;;7.93;4.25;;;;;;;13.01;80.16;101050.50;5101663;27;20034;-86
2022/05/26 05:58:26;;;;;;;6.57;3.30;;;;;;;13.01;79.97;101045.25;5101222;27;20387;-86
2022/05/26 06:00:52;;;;;;;6.05;3.40;;;;;;;13.06;80.47;101054.78;5118482;27;20075;-85
2022/05/26 06:03:17;;;;;;;6.78;3.25;;;;;;;13.05;79.69;101077.53;5101357;27;20110;-85
2022/05/26 06:05:43;;;;;;;5.85;3.42;;;;;;;13.04;79.48;101065.31;5101481;27;20407;-85
2022/05/26 06:08:09;;;;;;;5.97;3.53;;;;;;;13.07;79.42;101064.38;5101755;27;20045;-85
2022/05/26 06:10:34;;;;;;;8.32;3.42;;;;;;;13.06;80.07;101071.41;5101131;27;20109;-86
2022/05/26 06:12:59;;;;;;;6.90;3.15;;;;;;;13.06;80.05;101074.03;5101101;27;20027;-86
2022/05/26 06:15:25;;;;;;;7.32;3.28;;;;;;;13.10;79.04;101072.19;5101481;27;20027;-85
2022/05/26 06:17:51;;;;;;;8.80;3.42;;;;;;;13.16;77.94;101095.69;5100741;27;20030;-88
2022/05/26 06:20:17;;;;;;;7.68;2.90;;;;;;;13.26;78.35;101083.22;5100859;27;20118;-88
2022/05/26 06:22:44;;;;;;;9.98;3.38;;;;;;;13.29;77.85;101080.53;5101055;27;20054;-88
2022/05/26 06:25:11;;;;;;;9.02;2.88;;;;;;;13.27;78.29;101080.56;5100636;27;20080;-88
2022/05/26 06:30:22;;;;;;;6.93;2.63;;;;;;;13.29;77.41;101089.28;5120596;27;20038;-89
2022/05/26 06:38:22;;;;;;;8.48;2.92;;;;;;;13.40;76.85;101098.69;5120573;27;20088;-89
2022/05/26 06:40:48;;;;;;;9.38;2.72;;;;;;;13.49;75.92;101090.63;5100641;27;20031;-90
2022/05/26 06:43:15;;;;;;;5.72;2.17;;;;;;;13.52;75.26;101112.44;5100582;27;20023;-90
2022/05/26 06:45:41;;;;;;;4.68;2.10;;;;;;;13.56;73.99;101100.09;5100491;27;20027;-89
2022/05/26 06:48:07;;;;;;;4.85;1.70;;;;;;;13.54;73.83;101096.66;5100155;27;20026;-87
2022/05/26 06:50:33;;;;;;;5.40;1.60;;;;;;;13.56;73.28;101101.88;5100136;27;20548;-87
2022/05/26 06:52:58;;;;;;;9.52;1.98;;;;;;;13.61;72.76;101108.72;5117256;27;20020;-88
2022/05/26 06:55:24;;;;;;;5.85;1.83;;;;;;;13.63;73.42;101096.44;5100584;27;20030;-88
2022/05/26 06:57:50;;;;;;;6.90;1.73;;;;;;;13.60;73.21;101107.00;5100119;27;20023;-88
2022/05/26 07:00:15;;;;;;;5.07;2.35;;;;;;;13.64;73.15;101120.94;5099996;27;20023;-88
2022/05/26 07:02:41;;;;;;;5.93;1.70;;;;;;;13.72;71.74;101113.75;5117213;27;20031;-88
2022/05/26 07:05:08;;;;;;;5.40;1.90;;;;;;;13.69;73.16;101108.56;5099981;27;20601;-89
2022/05/26 07:07:35;;;;;;;4.88;2.38;;;;;;;13.69;72.83;101106.78;5100374;27;20388;-88
2022/05/26 07:10:02;;;;;;;5.88;1.95;;;;;;;13.71;73.23;101116.41;5099857;27;20488;-87
2022/05/26 07:12:27;;;;;;;4.07;1.58;;;;;;;13.69;74.59;101117.28;5099702;27;20019;-87
2022/05/26 07:14:53;;;;;;;6.40;1.80;;;;;;;13.72;73.95;101126.88;5092963;27;20369;-88
2022/05/26 07:17:19;;;;;;;5.65;1.30;;;;;;;13.75;72.86;101125.94;5116037;27;20480;-88
2022/05/26 07:19:45;;;;;;;5.80;1.42;;;;;;;13.80;72.95;101139.84;5099620;27;20080;-88
2022/05/26 07:22:11;;;;;;;4.35;1.33;;;;;;;13.82;71.27;101144.13;5087135;27;20028;-88
2022/05/26 07:24:37;;;;;;;5.28;1.33;;;;;;;13.89;69.33;101136.97;5112914;27;20102;-88
2022/05/26 07:27:02;;;;;;;6.25;1.42;;;;;;;13.88;68.36;101145.78;5099093;27;20066;-88
2022/05/26 07:29:28;;;;;;;4.15;1.33;;;;;;;13.88;68.53;101142.25;5088212;28;20092;-88
2022/05/26 07:31:54;;;;;;;6.68;1.40;;;;;;;13.86;67.93;101144.94;5124899;27;20391;-87
2022/05/26 07:34:20;;;;;;;2.47;1.00;;;;;;;13.85;67.85;101157.22;5097451;27;20023;-87
2022/05/26 07:42:19;;;;;;;4.97;1.15;;;;;;;13.86;68.56;101145.81;5118819;27;20110;-88
2022/05/26 07:44:46;;;;;;;2.97;1.00;;;;;;;13.94;67.69;101158.75;5099250;27;20049;-87
2022/05/26 07:47:12;;;;;;;3.08;0.90;;;;;;;14.00;65.22;101156.00;5093803;28;20400;-87
2022/05/26 07:49:41;;;;;;;4.32;1.00;;;;;;;14.02;65.62;101162.06;5162941;23;20036;-84
2022/05/26 07:52:07;;;;;;;2.10;0.90;;;;;;;14.10;63.27;101167.16;5081027;28;20043;-85
2022/05/26 07:54:32;;;;;;;6.72;0.80;;;;;;;14.00;64.02;101163.88;5079518;28;20028;-85
2022/05/26 07:56:58;;;;;;;3.13;0.90;;;;;;;14.03;63.21;101169.03;5070611;28;20050;-85
2022/05/26 07:59:24;;;;;;;3.63;0.95;;;;;;;14.11;63.90;101165.38;5058559;28;20028;-85
2022/05/26 08:01:50;;;;;;;6.18;1.05;;;;;;;14.07;63.49;101168.97;5058426;28;20077;-84
2022/05/26 08:04:15;;;;;;;2.83;0.80;;;;;;;14.06;64.15;101172.50;5059206;28;20028;-84
2022/05/26 08:06:45;;;;;;;2.10;1.00;;;;;;;14.09;65.29;101188.19;5058808;28;20107;-85
2022/05/26 08:09:11;;;;;;;4.97;1.40;;;;;;;14.12;63.63;101173.22;5059604;28;20062;-84
2022/05/26 08:11:36;;;;;;;2.78;1.20;;;;;;;14.14;62.76;101178.47;5059238;28;20055;-85
2022/05/26 08:14:02;;;;;;;3.42;0.90;;;;;;;14.15;61.61;101188.03;5059332;28;20020;-85
2022/05/26 08:16:27;;;;;;;2.50;0.70;;;;;;;14.20;61.51;101194.91;5058938;28;20032;-85
2022/05/26 08:18:53;;;;;;;3.60;0.63;;;;;;;14.24;60.11;101190.47;5059791;28;20020;-85
2022/05/26 08:21:18;;;;;;;3.72;0.50;;;;;;;14.33;59.07;101192.88;5060159;28;20030;-85
2022/05/26 08:23:44;;;;;;;5.32;0.60;;;;;;;14.35;60.32;101192.84;5059781;28;20492;-85
2022/05/26 08:26:09;;;;;;;3.67;0.75;;;;;;;14.40;58.66;101183.09;5059056;28;20519;-85
2022/05/26 08:28:35;;;;;;;6.55;1.75;;;;;;;14.42;60.07;101206.69;5059745;28;20031;-84
2022/05/26 08:31:00;;;;;;;2.70;0.65;;;;;;;14.46;59.43;101197.84;5059190;28;20016;-83
2022/05/26 08:33:27;;;;;;;1.02;0.45;;;;;;;14.41;58.44;101204.97;5059078;28;20326;-85
2022/05/26 08:36:04;;;;;;;3.42;0.73;;;;;;;14.42;58.56;101206.69;5058785;28;20529;-84
2022/05/26 08:38:29;;;;;;;3.35;0.68;;;;;;;14.44;60.14;101212.75;5059124;28;20028;-85
2022/05/26 08:40:54;;;;;;;4.30;0.75;;;;;;;14.46;59.21;101200.47;5058748;28;20036;-84
2022/05/26 08:43:24;;;;;;;1.13;0.50;;;;;;;14.51;60.07;101222.25;5059428;28;20047;-84
2022/05/26 08:45:51;;;;;;;1.48;0.60;;;;;;;14.57;60.44;101211.56;5059939;28;20420;-84
2022/05/26 08:48:50;;;;;;;2.00;0.75;;;;;;;14.62;61.33;101227.25;5059409;28;20019;-84
2022/05/26 08:51:50;;;;;;;1.25;0.50;;;;;;;14.58;58.06;101217.72;5075575;28;20020;-84
2022/05/26 08:54:34;;;;;;;1.17;0.43;;;;;;;14.53;56.35;101220.44;5060198;28;20047;-84
2022/05/26 08:57:01;;;;;;;1.45;0.47;;;;;;;14.52;56.75;101234.50;5058637;28;20016;-85
2022/05/26 08:59:34;;;;;;;3.38;0.63;;;;;;;14.47;56.50;101242.47;5074459;28;20031;-85
2022/05/26 09:02:01;;;;;;;2.33;0.50;;;;;;;14.43;56.04;101232.09;5057871;28;20024;-84
2022/05/26 09:04:26;;;;;;;1.75;0.45;;;;;;;14.43;57.03;101234.72;5058552;28;20554;-86
2022/05/26 09:15:11;;;;;;;1.63;0.52;;;;;;;14.47;57.57;101254.75;5078151;28;20035;-85
2022/05/26 09:17:37;;;;;;;2.80;0.45;;;;;;;14.53;56.80;101249.34;5057717;28;20035;-85
2022/05/26 09:20:05;;;;;;;1.02;0.35;;;;;;;14.60;56.36;101242.19;5057965;28;20123;-85
2022/05/26 09:22:32;;;;;;;0.57;0.30;;;;;;;14.72;55.20;101239.28;5058991;28;20039;-84
2022/05/26 09:24:59;;;;;;;1.60;0.40;;;;;;;14.78;55.65;101243.50;5058115;28;20447;-84
2022/05/26 09:27:38;;;;;;;3.03;0.50;;;;;;;14.85;53.09;101258.25;5057713;28;20089;-85
2022/05/26 09:30:22;;;;;;;0.80;0.50;;;;;;;14.84;54.08;101253.91;5058180;28;20020;-85
2022/05/26 09:32:48;;;;;;;3.00;0.40;;;;;;;14.82;54.28;101258.31;5074865;28;20275;-85
2022/05/26 09:35:34;;;;;;;2.53;0.30;;;;;;;14.79;54.17;101255.78;5057686;28;20093;-84
2022/05/26 09:38:02;;;;;;;1.05;0.52;;;;;;;14.79;53.76;101263.66;5056639;28;20060;-86
2022/05/26 09:40:32;;;;;;;1.27;0.45;;;;;;;14.87;53.27;101283.63;5057197;28;20035;-86
2022/05/26 09:43:02;;;;;;;0.82;0.40;;;;;;;14.85;54.59;101263.53;5057363;28;20182;-85
2022/05/26 09:45:35;;;;;;;2.25;0.30;;;;;;;14.94;53.93;101265.91;5088279;28;20023;-85
2022/05/26 09:48:01;;;;;;;0.95;0.47;;;;;;;15.04;54.42;101258.66;5077410;28;20020;-85
2022/05/26 09:50:32;;;;;;;1.33;0.50;;;;;;;15.15;54.05;101272.38;5077579;28;20023;-86
2022/05/26 09:52:59;;;;;;;4.00;0.40;;;;;;;15.24;54.26;101265.16;5112345;28;20024;-85
2022/05/26 09:55:32;;;;;;;1.45;0.35;;;;;;;15.37;54.31;101267.41;5077449;28;20145;-85
2022/05/26 09:58:13;;;;;;;1.08;0.40;;;;;;;15.45;55.33;101266.34;5093691;28;20023;-85
2022/05/26 10:00:44;;;;;;;1.30;0.50;;;;;;;15.49;53.55;101273.25;5094036;28;20031;-86
2022/05/26 10:03:22;;;;;;;2.33;0.50;;;;;;;15.47;54.76;101275.91;5078479;28;20034;-85
2022/05/26 10:06:08;;;;;;;1.83;0.40;;;;;;;15.49;53.06;101283.78;5097775;28;20038;-86
2022/05/26 10:09:15;;;;;;;1.48;0.38;;;;;;;15.48;53.31;101284.69;5081444;28;20072;-85
2022/05/26 10:11:50;;;;;;;3.53;0.45;;;;;;;15.44;52.86;101283.06;5086735;28;20028;-86
2022/05/26 10:14:18;;;;;;;1.60;0.63;;;;;;;15.43;52.53;101276.06;5116701;28;20119;-85
2022/05/26 10:16:52;;;;;;;0.98;0.40;;;;;;;15.44;54.22;101283.91;5097382;28;20476;-85
2022/05/26 10:19:55;;;;;;;2.63;0.50;;;;;;;15.45;54.80;101285.63;5097940;28;20061;-85
2022/05/26 10:22:52;;;;;;;4.03;0.60;;;;;;;15.55;55.12;101284.47;5097454;28;20038;-86
2022/05/26 10:25:21;;;;;;;1.50;0.38;;;;;;;15.62;55.43;101277.25;5097729;28;20039;-85
2022/05/26 10:27:57;;;;;;;1.10;0.40;;;;;;;15.70;55.82;101290.22;5097347;28;20019;-85
2022/05/26 10:30:41;;;;;;;2.08;0.30;;;;;;;15.71;55.76;101281.41;5097688;28;20495;-85
2022/05/26 10:33:18;;;;;;;1.90;0.70;;;;;;;15.78;55.88;101282.97;5097580;28;20023;-85
2022/05/26 10:35:47;;;;;;;3.35;0.47;;;;;;;15.91;55.13;101283.53;5097169;28;20028;-85
2022/05/26 10:38:23;;;;;;;3.35;0.50;;;;;;;16.00;56.10;101293.75;5102485;28;20179;-85
2022/05/26 10:41:01;;;;;;;1.50;0.70;;;;;;;16.03;55.81;101283.16;5099884;28;20524;-82
2022/05/26 10:43:55;;;;;;;2.60;0.68;;;;;;;16.05;56.91;101281.31;5081389;28;20075;-82
2022/05/26 10:46:24;;;;;;;2.85;0.82;;;;;;;16.17;53.72;101300.31;5099614;28;20027;-82
2022/05/26 10:49:07;;;;;;;3.58;0.60;;;;;;;16.27;52.64;101309.69;5083331;28;20032;-85
2022/05/26 10:51:36;;;;;;;0.88;0.38;;;;;;;16.31;51.04;101292.84;5082224;28;20149;-83
2022/05/26 10:54:12;;;;;;;1.00;0.50;;;;;;;16.29;51.03;101299.97;5100192;28;20024;-82
2022/05/26 10:56:47;;;;;;;1.45;0.40;;;;;;;16.25;49.69;101287.75;5083805;28;20400;-83
2022/05/26 10:59:26;;;;;;;1.27;0.60;;;;;;;16.21;51.12;101300.19;5083508;28;20051;-82
2022/05/26 11:02:18;;;;;;;3.92;0.57;;;;;;;16.27;51.68;101293.00;5100505;28;20589;-83
2022/05/26 11:04:59;;;;;;;4.63;0.45;;;;;;;16.30;50.30;101309.56;5082765;28;20492;-83
2022/05/26 11:07:34;;;;;;;4.03;0.50;;;;;;;16.23;50.79;101310.69;5100064;28;20082;-83
2022/05/26 11:10:07;;;;;;;1.83;0.40;;;;;;;16.15;51.33;101304.78;5100594;28;20477;-82
2022/05/26 11:12:56;;;;;;;1.75;0.50;;;;;;;15.93;50.90;101302.75;5100437;28;20031;-83
2022/05/26 11:18:28;;;;;;;2.50;0.63;;;;;;;15.64;52.56;101314.97;5104009;28;20042;-85
2022/05/26 11:20:56;;;;;;;4.10;0.55;;;;;;;15.66;52.65;101313.13;5100552;28;20392;-83
2022/05/26 11:23:22;;;;;;;3.28;0.63;;;;;;;15.84;53.09;101308.28;5083003;28;20507;-83
2022/05/26 11:25:57;;;;;;;2.22;0.98;;;;;;;15.93;53.71;101302.75;5082694;28;20027;-82
2022/05/26 11:28:39;;;;;;;4.32;0.70;;;;;;;15.94;53.56;101304.50;5099813;28;20097;-85
2022/05/26 11:37:29;;;;;;;2.42;0.47;;;;;;;16.08;52.88;101305.88;5095933;28;20533;-82
2022/05/26 11:40:13;;;;;;;1.90;0.52;;;;;;;15.99;52.34;101297.34;5083416;28;20019;-83
2022/05/26 11:42:55;;;;;;;2.25;0.68;;;;;;;15.86;53.48;101309.13;5084495;28;20027;-82
2022/05/26 11:45:33;;;;;;;1.77;0.75;;;;;;;15.75;53.66;101313.78;5084422;28;20024;-82
2022/05/26 11:48:01;;;;;;;2.65;0.88;;;;;;;15.69;51.39;101301.66;5083355;28;20031;-83
2022/05/26 11:50:28;;;;;;;3.08;0.40;;;;;;;15.54;52.66;101322.25;5082058;28;20019;-85
2022/05/26 11:52:53;;;;;;;3.38;0.95;;;;;;;15.45;52.19;101317.22;5082167;28;20024;-85
2022/05/26 11:55:30;;;;;;;4.38;1.23;;;;;;;15.36;52.97;101334.09;5118793;28;20024;-85
2022/05/26 11:57:56;;;;;;;3.20;0.70;;;;;;;15.32;52.84;101300.88;5083486;28;20027;-83
2022/05/26 12:00:35;;;;;;;1.23;0.40;;;;;;;15.47;52.90;101325.06;5082481;28;20042;-83
2022/05/26 12:03:19;;;;;;;1.73;0.50;;;;;;;15.59;52.18;101316.00;5099695;28;20019;-82
2022/05/26 12:05:46;;;;;;;2.17;0.73;;;;;;;15.60;53.40;101321.22;5098088;28;20027;-82
2022/05/26 12:08:32;;;;;;;1.10;0.50;;;;;;;15.61;53.48;101322.06;5082002;28;20277;-82
2022/05/26 12:11:03;;;;;;;1.33;0.50;;;;;;;15.66;54.35;101322.81;5083168;28;20110;-83
2022/05/26 12:13:32;;;;;;;2.28;0.82;;;;;;;15.67;53.71;101320.13;5065652;28;20044;-82
2022/05/26 12:16:28;;;;;;;1.88;0.45;;;;;;;15.60;55.54;101317.69;5081881;28;20114;-81
2022/05/26 12:19:06;;;;;;;2.47;0.98;;;;;;;15.59;54.88;101318.63;5065115;28;20044;-83